createdAt,value
2019-01-26T00:01:18.496Z,100044.66
2019-01-26T00:03:47.112Z,100036.64
2019-01-26T00:06:15.640Z,100034.55
2019-01-26T00:08:47.401Z,100030.30
2019-01-26T00:11:15.884Z,100028.67
2019-01-26T00:13:44.454Z,100022.38
2019-01-26T00:16:12.955Z,100030.91
2019-01-26T00:18:41.429Z,100030.08
2019-01-26T00:21:09.881Z,100039.83
2019-01-26T00:23:38.502Z,100035.20
2019-01-26T00:26:06.943Z,100031.84
2019-01-26T00:28:35.450Z,100031.48
2019-01-26T00:31:04.033Z,100034.08
2019-01-26T00:33:32.488Z,100025.20
2019-01-26T00:36:01.016Z,100016.78
2019-01-26T00:38:29.456Z,100015.11
2019-01-26T00:40:57.869Z,99992.37
2019-01-26T00:43:26.332Z,99988.16
2019-01-26T00:45:54.759Z,99994.14
2019-01-26T00:48:23.336Z,99991.64
2019-01-26T00:50:51.750Z,99991.27
2019-01-26T00:53:20.260Z,99988.75
2019-01-26T00:55:48.769Z,99994.54
2019-01-26T00:58:17.261Z,99998.84
2019-01-26T01:00:45.696Z,99994.22
2019-01-26T01:03:14.280Z,99990.02
2019-01-26T01:05:42.716Z,99992.18
2019-01-26T01:08:11.207Z,99987.52
2019-01-26T01:10:39.767Z,99988.42
2019-01-26T01:13:08.184Z,99980.03
2019-01-26T01:15:36.617Z,99986.83
2019-01-26T01:18:05.099Z,99986.02
2019-01-26T01:20:33.543Z,99971.69
2019-01-26T01:23:01.982Z,99968.33
2019-01-26T01:25:30.420Z,99965.88
2019-01-26T01:27:58.832Z,99937.17
2019-01-26T01:30:27.345Z,99943.15
2019-01-26T01:32:55.782Z,99934.31
2019-01-26T01:35:24.291Z,99942.00
2019-01-26T01:37:52.782Z,99951.33
2019-01-26T01:40:21.462Z,99950.95
2019-01-26T01:42:49.895Z,99949.31
2019-01-26T01:45:23.310Z,99954.43
2019-01-26T01:47:51.729Z,99954.05
2019-01-26T01:50:20.312Z,99957.90
2019-01-26T01:52:48.819Z,99952.86
2019-01-26T01:55:17.433Z,99950.36
2019-01-26T01:57:46.063Z,99938.96
2019-01-26T02:00:17.313Z,99947.02
2019-01-26T02:02:45.770Z,99947.92
2019-01-26T02:05:14.297Z,99953.48
2019-01-26T02:07:42.771Z,99945.89
2019-01-26T02:10:14.573Z,99944.24
2019-01-26T02:12:42.990Z,99945.52
2019-01-26T02:15:12.574Z,99947.64
2019-01-26T02:17:40.982Z,99948.13
2019-01-26T02:20:15.556Z,99943.90
2019-01-26T02:22:44.041Z,99953.65
2019-01-26T02:25:13.120Z,99949.42
2019-01-26T02:27:41.619Z,99941.39
2019-01-26T02:30:13.316Z,99950.34
2019-01-26T02:32:41.730Z,99946.13
2019-01-26T02:35:10.299Z,99940.63
2019-01-26T02:37:38.727Z,99933.86
2019-01-26T02:40:10.202Z,99933.86
2019-01-26T02:42:38.901Z,99945.84
2019-01-26T02:45:09.872Z,99950.98
2019-01-26T02:47:38.454Z,99942.11
2019-01-26T02:50:10.120Z,99946.81
2019-01-26T02:52:38.599Z,99949.80
2019-01-26T02:55:07.378Z,99946.88
2019-01-26T02:57:35.822Z,99933.72
2019-01-26T03:00:07.305Z,99943.47
2019-01-26T03:02:35.746Z,99938.00
2019-01-26T03:05:06.915Z,99940.13
2019-01-26T03:07:35.341Z,99930.41
2019-01-26T03:10:04.934Z,99918.99
2019-01-26T03:12:33.374Z,99932.14
2019-01-26T03:15:01.787Z,99934.30
2019-01-26T03:17:30.233Z,99924.19
2019-01-26T03:19:58.660Z,99921.64
2019-01-26T03:22:27.155Z,99921.64
2019-01-26T03:24:55.565Z,99919.56
2019-01-26T03:27:24.003Z,99907.29
2019-01-26T03:29:52.425Z,99913.27
2019-01-26T03:32:20.900Z,99911.59
2019-01-26T03:34:49.380Z,99910.77
2019-01-26T03:37:17.846Z,99916.34
2019-01-26T03:39:46.329Z,99914.23
2019-01-26T03:42:14.751Z,99911.30
2019-01-26T03:44:43.173Z,99911.30
2019-01-26T03:47:13.741Z,99919.80
2019-01-26T03:49:41.747Z,99917.70
2019-01-26T03:52:10.220Z,99907.11
2019-01-26T03:54:38.628Z,99899.50
2019-01-26T03:57:07.148Z,99902.48
2019-01-26T03:59:35.619Z,99896.97
2019-01-26T04:02:04.231Z,99889.38
2019-01-26T04:04:32.716Z,99889.38
2019-01-26T04:07:01.166Z,99894.47
2019-01-26T04:09:29.716Z,99893.22
2019-01-26T04:11:58.097Z,99894.53
2019-01-26T04:14:26.510Z,99894.16
2019-01-26T04:16:55.010Z,99894.16
2019-01-26T04:19:23.429Z,99893.32
2019-01-26T04:21:51.859Z,99900.97
2019-01-26T04:24:20.342Z,99895.89
2019-01-26T04:26:48.799Z,99892.94
2019-01-26T04:29:17.218Z,99892.12
2019-01-26T04:31:45.664Z,99879.39
2019-01-26T04:34:14.079Z,99879.39
2019-01-26T04:36:42.562Z,99892.56
2019-01-26T04:39:10.945Z,99892.58
2019-01-26T04:41:39.420Z,99884.52
2019-01-26T04:44:07.864Z,99885.80
2019-01-26T04:46:36.289Z,99885.80
2019-01-26T04:49:04.864Z,99875.59
2019-01-26T04:51:33.279Z,99880.30
2019-01-26T04:54:01.700Z,99880.30
2019-01-26T04:56:30.145Z,99876.06
2019-01-26T04:58:58.592Z,99875.20
2019-01-26T05:01:27.014Z,99879.48
2019-01-26T05:03:55.450Z,99879.48
2019-01-26T05:06:23.873Z,99873.95
2019-01-26T05:08:52.301Z,99873.95
2019-01-26T05:11:20.774Z,99887.13
2019-01-26T05:13:49.174Z,99878.63
2019-01-26T05:16:17.595Z,99879.03
2019-01-26T05:18:46.038Z,99879.03
2019-01-26T05:21:14.444Z,99876.05
2019-01-26T05:23:42.906Z,99872.60
2019-01-26T05:26:11.316Z,99881.51
2019-01-26T05:28:39.755Z,99881.51
2019-01-26T05:31:08.246Z,99878.14
2019-01-26T05:33:36.699Z,99878.55
2019-01-26T05:36:05.277Z,99878.97
2019-01-26T05:38:33.736Z,99873.86
2019-01-26T05:41:02.158Z,99867.09
2019-01-26T05:43:30.618Z,99867.51
2019-01-26T05:45:59.109Z,99872.61
2019-01-26T05:48:27.583Z,99872.20
2019-01-26T05:50:56.102Z,99855.20
2019-01-26T05:53:24.543Z,99852.67
2019-01-26T05:55:52.970Z,99853.96
2019-01-26T05:58:21.420Z,99845.91
2019-01-26T06:00:49.845Z,99845.93
2019-01-26T06:03:18.307Z,99841.69
2019-01-26T06:05:46.738Z,99833.19
2019-01-26T06:08:15.186Z,99823.05
2019-01-26T06:10:43.597Z,99820.52
2019-01-26T06:13:12.045Z,99817.55
2019-01-26T06:15:40.474Z,99815.00
2019-01-26T06:18:08.985Z,99815.86
2019-01-26T06:20:37.411Z,99812.89
2019-01-26T06:23:05.830Z,99808.63
2019-01-26T06:25:34.263Z,99813.30
2019-01-26T06:28:02.714Z,99804.37
2019-01-26T06:30:31.166Z,99795.89
2019-01-26T06:32:59.681Z,99790.77
2019-01-26T06:35:28.125Z,99784.81
2019-01-26T06:37:56.549Z,99784.79
2019-01-26T06:40:25.061Z,99784.79
2019-01-26T06:42:53.646Z,99780.09
2019-01-26T06:45:22.380Z,99777.09
2019-01-26T06:47:50.876Z,99777.09
2019-01-26T06:50:23.750Z,99766.51
2019-01-26T06:52:52.469Z,99769.05
2019-01-26T06:55:21.232Z,99770.33
2019-01-26T06:57:49.713Z,99756.73
2019-01-26T07:00:21.065Z,99759.30
2019-01-26T07:02:49.554Z,99754.20
2019-01-26T07:05:20.086Z,99749.96
2019-01-26T07:07:48.543Z,99753.80
2019-01-26T07:10:17.023Z,99753.80
2019-01-26T07:12:45.452Z,99741.50
2019-01-26T07:15:15.516Z,99741.50
2019-01-26T07:17:44.000Z,99745.73
2019-01-26T07:20:15.224Z,99742.77
2019-01-26T07:22:43.645Z,99736.83
2019-01-26T07:25:12.372Z,99743.64
2019-01-26T07:27:40.854Z,99734.28
2019-01-26T07:30:21.353Z,99737.29
2019-01-26T07:32:49.838Z,99739.42
2019-01-26T07:35:18.272Z,99734.73
2019-01-26T07:37:46.691Z,99725.42
2019-01-26T07:40:20.939Z,99728.81
2019-01-26T07:42:49.616Z,99739.41
2019-01-26T07:45:18.488Z,99739.41
2019-01-26T07:47:46.979Z,99726.70
2019-01-26T07:50:21.527Z,99726.70
2019-01-26T07:52:50.115Z,99720.80
2019-01-26T07:55:18.973Z,99724.19
2019-01-26T07:57:47.403Z,99724.19
2019-01-26T08:00:21.589Z,99723.36
2019-01-26T08:02:50.019Z,99723.36
2019-01-26T08:05:19.103Z,99719.58
2019-01-26T08:07:47.685Z,99708.58
2019-01-26T08:10:21.755Z,99707.72
2019-01-26T08:12:50.628Z,99704.75
2019-01-26T08:15:24.644Z,99699.28
2019-01-26T08:17:53.143Z,99696.72
2019-01-26T08:20:22.382Z,99695.85
2019-01-26T08:22:51.042Z,99696.70
2019-01-26T08:25:19.485Z,99698.83
2019-01-26T08:27:48.778Z,99703.06
2019-01-26T08:30:24.387Z,99700.47
2019-01-26T08:32:53.446Z,99699.17
2019-01-26T08:35:22.147Z,99701.70
2019-01-26T08:37:50.729Z,99702.92
2019-01-26T08:40:21.298Z,99696.97
2019-01-26T08:42:50.658Z,99693.08
2019-01-26T08:45:19.330Z,99706.27
2019-01-26T08:47:48.401Z,99705.80
2019-01-26T08:50:19.511Z,99696.02
2019-01-26T08:52:48.004Z,99691.38
2019-01-26T08:55:18.272Z,99704.17
2019-01-26T08:57:47.038Z,99705.44
2019-01-26T09:00:18.674Z,99711.39
2019-01-26T09:02:55.742Z,99691.41
2019-01-26T09:05:26.136Z,99698.63
2019-01-26T09:07:54.588Z,99697.36
2019-01-26T09:10:23.097Z,99701.16
2019-01-26T09:12:51.531Z,99705.84
2019-01-26T09:15:20.329Z,99703.30
2019-01-26T09:17:48.832Z,99700.72
2019-01-26T09:20:18.411Z,99700.75
2019-01-26T09:22:46.846Z,99695.61
2019-01-26T09:25:15.406Z,99714.77
2019-01-26T09:27:44.191Z,99697.75
2019-01-26T09:30:15.675Z,99709.25
2019-01-26T09:32:44.176Z,99709.25
2019-01-26T09:35:12.912Z,99703.70
2019-01-26T09:37:41.347Z,99699.03
2019-01-26T09:40:18.529Z,99706.23
2019-01-26T09:42:46.954Z,99709.65
2019-01-26T09:45:17.394Z,99704.54
2019-01-26T09:47:46.162Z,99701.98
2019-01-26T09:50:15.555Z,99706.23
2019-01-26T09:52:43.967Z,99704.13
2019-01-26T09:55:14.832Z,99706.67
2019-01-26T09:57:43.289Z,99702.84
2019-01-26T10:00:26.164Z,99715.20
2019-01-26T10:02:54.680Z,99718.58
2019-01-26T10:05:23.170Z,99703.70
2019-01-26T10:07:51.811Z,99715.60
2019-01-26T10:10:21.362Z,99701.98
2019-01-26T10:12:50.092Z,99707.06
2019-01-26T10:15:23.546Z,99696.85
2019-01-26T10:17:52.032Z,99711.36
2019-01-26T10:20:29.488Z,99705.80
2019-01-26T10:22:57.909Z,99693.47
2019-01-26T10:25:26.548Z,99695.60
2019-01-26T10:27:54.985Z,99709.22
2019-01-26T10:30:36.836Z,99715.18
2019-01-26T10:33:05.403Z,99711.33
2019-01-26T10:35:51.455Z,99700.27
2019-01-26T10:38:20.118Z,99708.77
2019-01-26T10:40:53.010Z,99725.37
2019-01-26T10:43:23.170Z,99694.70
2019-01-26T10:45:51.592Z,99698.13
2019-01-26T10:48:20.092Z,99693.86
2019-01-26T10:50:48.523Z,99691.29
2019-01-26T10:53:16.964Z,99703.20
2019-01-26T10:55:45.461Z,99696.83
2019-01-26T10:58:13.900Z,99688.71
2019-01-26T11:00:42.348Z,99688.71
2019-01-26T11:03:10.861Z,99693.83
2019-01-26T11:05:39.362Z,99690.00
2019-01-26T11:08:07.778Z,99688.27
2019-01-26T11:10:36.205Z,99684.03
2019-01-26T11:13:04.705Z,99691.67
2019-01-26T11:15:33.225Z,99696.37
2019-01-26T11:18:01.805Z,99696.78
2019-01-26T11:20:30.549Z,99690.83
2019-01-26T11:22:59.000Z,99694.23
2019-01-26T11:25:27.415Z,99695.93
2019-01-26T11:27:55.869Z,99684.45
2019-01-26T11:30:26.090Z,99684.45
2019-01-26T11:32:54.538Z,99687.87
2019-01-26T11:35:24.905Z,99685.70
2019-01-26T11:37:53.479Z,99688.27
2019-01-26T11:40:23.635Z,99681.89
2019-01-26T11:42:52.479Z,99690.38
2019-01-26T11:45:39.027Z,99679.30
2019-01-26T11:48:21.282Z,99681.44
2019-01-26T11:50:51.463Z,99683.56
2019-01-26T11:53:19.919Z,99681.84
2019-01-26T11:55:49.985Z,99679.70
2019-01-26T11:58:18.475Z,99671.68
2019-01-26T12:00:59.539Z,99671.23
2019-01-26T12:03:31.825Z,99679.73
2019-01-26T12:06:04.314Z,99679.73
2019-01-26T12:08:32.830Z,99675.91
2019-01-26T12:11:01.259Z,99667.81
2019-01-26T12:13:29.701Z,99671.62
2019-01-26T12:15:58.134Z,99664.83
2019-01-26T12:18:26.678Z,99670.37
2019-01-26T12:20:55.126Z,99667.39
2019-01-26T12:23:23.687Z,99661.84
2019-01-26T12:25:52.127Z,99670.34
2019-01-26T12:28:20.555Z,99671.20
2019-01-26T12:30:49.080Z,99656.69
2019-01-26T12:33:17.526Z,99666.06
2019-01-26T12:35:46.000Z,99669.05
2019-01-26T12:38:14.556Z,99664.76
2019-01-26T12:40:43.044Z,99647.73
2019-01-26T12:43:11.597Z,99655.39
2019-01-26T12:45:40.108Z,99652.84
2019-01-26T12:48:08.685Z,99647.73
2019-01-26T12:50:37.143Z,99655.37
2019-01-26T12:53:06.023Z,99653.64
2019-01-26T12:55:34.650Z,99657.90
2019-01-26T12:58:03.079Z,99664.70
2019-01-26T13:00:31.580Z,99665.56
2019-01-26T13:03:00.032Z,99659.17
2019-01-26T13:05:28.591Z,99660.88
2019-01-26T13:07:57.025Z,99661.28
2019-01-26T13:10:28.505Z,99651.94
2019-01-26T13:12:57.080Z,99650.66
2019-01-26T13:15:25.590Z,99651.94
2019-01-26T13:17:54.161Z,99645.54
2019-01-26T13:20:22.792Z,99646.42
2019-01-26T13:22:51.442Z,99640.46
2019-01-26T13:25:20.220Z,99633.25
2019-01-26T13:27:48.745Z,99647.70
2019-01-26T13:30:22.671Z,99640.46
2019-01-26T13:32:51.224Z,99645.57
2019-01-26T13:35:19.882Z,99644.27
2019-01-26T13:37:48.566Z,99643.02
2019-01-26T13:40:19.984Z,99649.38
2019-01-26T13:42:48.488Z,99648.10
2019-01-26T13:45:17.446Z,99642.56
2019-01-26T13:47:45.890Z,99647.70
2019-01-26T13:50:14.666Z,99647.27
2019-01-26T13:52:43.208Z,99639.19
2019-01-26T13:55:17.423Z,99642.62
2019-01-26T13:57:45.866Z,99642.19
2019-01-26T14:00:23.051Z,99643.07
2019-01-26T14:02:51.553Z,99637.98
2019-01-26T14:05:20.146Z,99637.95
2019-01-26T14:07:48.647Z,99639.23
2019-01-26T14:10:20.421Z,99621.80
2019-01-26T14:12:49.314Z,99637.58
2019-01-26T14:15:19.591Z,99632.44
2019-01-26T14:17:48.170Z,99634.17
2019-01-26T14:20:19.476Z,99630.34
2019-01-26T14:22:47.978Z,99628.23
2019-01-26T14:25:17.769Z,99626.16
2019-01-26T14:27:46.329Z,99610.47
2019-01-26T14:30:21.129Z,99623.66
2019-01-26T14:32:52.672Z,99627.90
2019-01-26T14:35:20.138Z,99625.79
2019-01-26T14:37:48.648Z,99619.43
2019-01-26T14:40:17.896Z,99622.83
2019-01-26T14:42:46.342Z,99623.70
2019-01-26T14:45:16.796Z,99619.87
2019-01-26T14:47:45.397Z,99619.87
2019-01-26T14:50:16.160Z,99627.96
2019-01-26T14:52:44.947Z,99619.87
2019-01-26T14:55:16.311Z,99625.81
2019-01-26T14:57:44.773Z,99631.78
2019-01-26T15:00:31.379Z,99627.14
2019-01-26T15:02:59.896Z,99619.49
2019-01-26T15:05:28.798Z,99621.17
2019-01-26T15:07:59.169Z,99611.83
2019-01-26T15:10:27.849Z,99615.63
2019-01-26T15:12:56.315Z,99617.80
2019-01-26T15:15:24.882Z,99622.92
2019-01-26T15:17:53.333Z,99625.47
2019-01-26T15:20:30.749Z,99608.45
2019-01-26T15:22:59.314Z,99602.08
2019-01-26T15:25:27.895Z,99602.91
2019-01-26T15:27:56.394Z,99610.57
2019-01-26T15:30:33.969Z,99599.95
2019-01-26T15:33:02.553Z,99614.85
2019-01-26T15:35:31.053Z,99607.59
2019-01-26T15:37:59.496Z,99600.80
2019-01-26T15:40:27.928Z,99613.14
2019-01-26T15:42:56.390Z,99617.83
2019-01-26T15:45:27.856Z,99616.12
2019-01-26T15:47:57.110Z,99601.66
2019-01-26T15:50:25.536Z,99611.91
2019-01-26T15:52:53.950Z,99606.80
2019-01-26T15:55:24.838Z,99598.29
2019-01-26T15:57:53.609Z,99592.34
2019-01-26T16:00:41.878Z,99592.34
2019-01-26T16:03:10.438Z,99596.16
2019-01-26T16:05:38.941Z,99596.16
2019-01-26T16:08:08.008Z,99592.35
2019-01-26T16:10:37.029Z,99594.88
2019-01-26T16:13:05.986Z,99594.91
2019-01-26T16:15:36.863Z,99585.53
2019-01-26T16:18:07.854Z,99589.75
2019-01-26T16:20:36.274Z,99594.05
2019-01-26T16:23:09.388Z,99582.97
2019-01-26T16:25:35.197Z,99589.36
2019-01-26T16:28:03.699Z,99585.12
2019-01-26T16:30:32.973Z,99580.42
2019-01-26T16:33:01.413Z,99588.08
2019-01-26T16:35:29.849Z,99578.72
2019-01-26T16:37:58.452Z,99581.67
2019-01-26T16:40:29.939Z,99576.57
2019-01-26T16:42:58.435Z,99582.53
2019-01-26T16:45:34.809Z,99571.87
2019-01-26T16:48:03.671Z,99571.87
2019-01-26T16:50:32.478Z,99557.80
2019-01-26T16:53:00.992Z,99567.13
2019-01-26T16:55:29.516Z,99567.92
2019-01-26T16:57:57.946Z,99565.77
2019-01-26T17:00:35.351Z,99553.00
2019-01-26T17:03:03.963Z,99554.73
2019-01-26T17:05:32.637Z,99552.63
2019-01-26T17:08:01.332Z,99553.88
2019-01-26T17:10:34.181Z,99554.28
2019-01-26T17:13:00.110Z,99537.25
2019-01-26T17:15:28.585Z,99537.25
2019-01-26T17:17:57.190Z,99550.83
2019-01-26T17:20:35.021Z,99546.99
2019-01-26T17:23:01.531Z,99537.23
2019-01-26T17:25:29.967Z,99539.81
2019-01-26T17:27:58.452Z,99539.02
2019-01-26T17:30:32.332Z,99537.28
2019-01-26T17:33:06.984Z,99533.03
2019-01-26T17:35:31.078Z,99533.88
2019-01-26T17:37:59.500Z,99533.88
2019-01-26T17:40:28.029Z,99521.50
2019-01-26T17:42:56.539Z,99521.50
2019-01-26T17:45:25.445Z,99525.77
2019-01-26T17:47:54.416Z,99518.53
2019-01-26T17:50:25.352Z,99510.05
2019-01-26T17:52:53.985Z,99513.02
2019-01-26T17:55:22.603Z,99507.55
2019-01-26T17:57:51.253Z,99502.41
2019-01-26T18:03:23.547Z,99490.06
2019-01-26T18:05:52.016Z,99490.06
2019-01-26T18:08:20.479Z,99479.03
2019-01-26T18:10:49.059Z,99477.73
2019-01-26T18:13:17.583Z,99467.55
2019-01-26T18:15:46.010Z,99467.55
2019-01-26T18:18:14.520Z,99458.17
2019-01-26T18:20:48.961Z,99453.50
2019-01-26T18:23:13.552Z,99453.95
2019-01-26T18:25:42.392Z,99447.56
2019-01-26T18:28:10.916Z,99436.96
2019-01-26T18:30:40.686Z,99436.14
2019-01-26T18:33:09.433Z,99432.25
2019-01-26T18:35:38.046Z,99432.25
2019-01-26T18:38:06.952Z,99438.17
2019-01-26T18:40:35.433Z,99436.93
2019-01-26T18:43:03.963Z,99421.67
2019-01-26T18:45:33.068Z,99428.84
2019-01-26T18:48:01.521Z,99428.84
2019-01-26T18:50:32.754Z,99423.28
2019-01-26T18:53:01.665Z,99423.28
2019-01-26T18:55:30.169Z,99427.97
2019-01-26T18:57:58.572Z,99417.72
2019-01-26T19:00:36.294Z,99405.80
2019-01-26T19:03:25.878Z,99402.86
2019-01-26T19:05:56.640Z,99401.55
2019-01-26T19:08:25.146Z,99399.42
2019-01-26T19:10:53.667Z,99391.33
2019-01-26T19:13:22.180Z,99381.97
2019-01-26T19:15:50.673Z,99376.90
2019-01-26T19:18:19.280Z,99371.33
2019-01-26T19:20:48.744Z,99363.24
2019-01-26T19:23:17.400Z,99362.39
2019-01-26T19:25:45.959Z,99369.23
2019-01-26T19:28:14.469Z,99373.09
2019-01-26T19:30:43.185Z,99367.17
2019-01-26T19:33:11.624Z,99354.84
2019-01-26T19:35:41.783Z,99356.93
2019-01-26T19:38:10.239Z,99349.70
2019-01-26T19:40:38.756Z,99348.00
2019-01-26T19:43:07.278Z,99347.56
2019-01-26T19:45:35.699Z,99340.69
2019-01-26T19:48:05.070Z,99337.28
2019-01-26T19:50:33.579Z,99337.71
2019-01-26T19:53:02.057Z,99327.07
2019-01-26T19:55:30.629Z,99324.94
2019-01-26T19:57:59.062Z,99314.27
2019-01-26T20:00:27.504Z,99313.77
2019-01-26T20:02:56.058Z,99307.03
2019-01-26T20:05:26.012Z,99298.94
2019-01-26T20:07:54.680Z,99298.94
2019-01-26T20:10:23.347Z,99301.11
2019-01-26T20:12:51.856Z,99286.72
2019-01-26T20:15:22.048Z,99288.38
2019-01-26T20:17:51.055Z,99288.38
2019-01-26T20:20:22.638Z,99286.22
2019-01-26T20:22:51.526Z,99289.19
2019-01-26T20:25:19.970Z,99285.33
2019-01-26T20:27:48.503Z,99285.75
2019-01-26T20:30:23.180Z,99276.81
2019-01-26T20:32:51.662Z,99276.81
2019-01-26T20:35:20.267Z,99270.42
2019-01-26T20:37:48.775Z,99272.09
2019-01-26T20:40:18.680Z,99265.78
2019-01-26T20:42:47.323Z,99257.66
2019-01-26T20:45:21.187Z,99253.41
2019-01-26T20:47:49.632Z,99257.62
2019-01-26T20:50:18.072Z,99252.52
2019-01-26T20:52:46.964Z,99250.81
2019-01-26T20:55:15.746Z,99254.67
2019-01-26T20:57:44.139Z,99240.68
2019-01-26T21:00:18.622Z,99244.52
2019-01-26T21:02:47.146Z,99231.41
2019-01-26T21:05:15.847Z,99230.09
2019-01-26T21:07:44.280Z,99228.80
2019-01-26T21:10:18.688Z,99218.50
2019-01-26T21:12:47.684Z,99212.55
2019-01-26T21:15:16.124Z,99209.09
2019-01-26T21:17:44.535Z,99199.77
2019-01-26T21:20:18.610Z,99195.19
2019-01-26T21:22:47.106Z,99193.05
2019-01-26T21:25:15.854Z,99192.21
2019-01-26T21:27:44.601Z,99191.79
2019-01-26T21:30:21.643Z,99181.19
2019-01-26T21:32:50.157Z,99187.61
2019-01-26T21:35:18.758Z,99163.37
2019-01-26T21:37:47.455Z,99168.47
2019-01-26T21:40:18.682Z,99166.81
2019-01-26T21:42:47.167Z,99166.81
2019-01-26T21:45:17.038Z,99158.73
2019-01-26T21:47:45.603Z,99163.03
2019-01-26T21:50:17.042Z,99156.65
2019-01-26T21:52:45.533Z,99154.10
2019-01-26T21:55:14.057Z,99145.64
2019-01-26T21:57:42.487Z,99143.09
2019-01-26T22:00:22.820Z,99133.34
2019-01-26T22:02:51.417Z,99130.38
2019-01-26T22:05:19.865Z,99129.94
2019-01-26T22:07:48.370Z,99128.62
2019-01-26T22:10:22.720Z,99124.84
2019-01-26T22:12:51.217Z,99122.33
2019-01-26T22:15:21.176Z,99121.47
2019-01-26T22:17:49.678Z,99120.62
2019-01-26T22:20:20.754Z,99115.11
2019-01-26T22:22:49.968Z,99114.24
2019-01-26T22:25:19.643Z,99104.05
2019-01-26T22:27:48.410Z,99104.47
2019-01-26T22:30:25.055Z,99094.31
2019-01-26T22:32:53.568Z,99094.31
2019-01-26T22:35:22.539Z,99085.42
2019-01-26T22:37:51.060Z,99094.73
2019-01-26T22:40:22.516Z,99090.05
2019-01-26T22:42:50.966Z,99088.34
2019-01-26T22:45:19.603Z,99086.66
2019-01-26T22:47:48.156Z,99081.59
2019-01-26T22:50:19.705Z,99081.59
2019-01-26T22:52:48.317Z,99077.81
2019-01-26T22:55:19.088Z,99066.76
2019-01-26T22:57:48.931Z,99056.16
2019-01-26T23:00:28.272Z,99052.68
2019-01-26T23:02:56.845Z,99047.62
2019-01-26T23:05:49.596Z,99047.62
2019-01-26T23:08:21.110Z,99039.58
2019-01-26T23:11:04.368Z,99045.87
2019-01-26T23:13:33.737Z,99036.89
2019-01-26T23:16:17.449Z,99019.92
2019-01-26T23:18:54.893Z,99019.45
2019-01-26T23:21:29.470Z,99013.08
2019-01-26T23:24:30.949Z,99000.74
2019-01-26T23:27:11.189Z,98999.45
2019-01-26T23:29:48.219Z,98999.45
2019-01-26T23:32:16.664Z,98987.13
2019-01-26T23:34:45.159Z,98968.00
2019-01-26T23:37:13.726Z,98968.00
2019-01-26T23:39:42.175Z,98963.74
2019-01-26T23:42:10.772Z,98957.79
2019-01-26T23:44:39.207Z,98955.29
2019-01-26T23:47:07.710Z,98950.67
2019-01-26T23:49:38.954Z,98945.98
2019-01-26T23:52:07.536Z,98938.02
2019-01-26T23:54:36.014Z,98940.94
2019-01-26T23:57:04.457Z,98937.20
2019-01-26T23:59:32.875Z,98934.66
